Time;durP1;ratioP1;P1;durP2;ratioP2;P2;SDS_P1;SDS_P2;PMS_P1;PMS_P2;Temp;Humidity;BMP_temperature;BMP_pressure;BME280_temperature;BME280_humidity;BME280_pressure;Samples;Min_cycle;Max_cycle;Signal;HPM_P1;HPM_P2
2023/04/07 00:00:57;;;;;;;;;;;7.50;99.90;;;;;;5111296;27;1283;-67
2023/04/07 00:03:23;;;;;;;;;;;7.50;99.90;;;;;;5109667;28;1219;-67
2023/04/07 00:05:49;;;;;;;;;;;7.60;99.90;;;;;;5109293;28;1093;-67
2023/04/07 00:08:15;;;;;;;;;;;7.60;99.90;;;;;;5100149;28;1993;-68
2023/04/07 00:10:40;;;;;;;;;;;7.50;99.90;;;;;;5099578;28;1299;-69
2023/04/07 00:13:06;;;;;;;;;;;7.50;99.90;;;;;;5119435;27;1202;-69
2023/04/07 00:15:32;;;;;;;;;;;7.50;99.90;;;;;;5130114;27;1322;-69
2023/04/07 00:17:57;;;;;;;;;;;7.50;99.90;;;;;;5122390;27;1088;-69
2023/04/07 00:20:23;;;;;;;;;;;7.50;99.90;;;;;;5105373;28;1144;-69
2023/04/07 00:22:49;;;;;;;;;;;7.50;99.90;;;;;;5109625;28;1123;-69
2023/04/07 00:25:14;;;;;;;;;;;7.50;99.90;;;;;;5109646;28;1135;-69
2023/04/07 00:27:40;;;;;;;;;;;7.60;99.90;;;;;;5108282;28;1973;-69
2023/04/07 00:30:06;;;;;;;;;;;7.60;99.90;;;;;;5109344;28;1151;-69
2023/04/07 00:32:32;;;;;;;;;;;7.60;99.90;;;;;;5091322;28;1128;-69
2023/04/07 00:34:58;;;;;;;;;;;7.60;99.90;;;;;;5108772;28;1143;-69
2023/04/07 00:37:24;;;;;;;;;;;7.60;99.90;;;;;;5107693;28;1419;-69
2023/04/07 00:39:50;;;;;;;;;;;7.60;99.90;;;;;;5090939;28;1128;-69
2023/04/07 00:42:17;;;;;;;;;;;7.60;99.90;;;;;;5108913;28;1156;-69
2023/04/07 00:44:42;;;;;;;;;;;7.60;99.90;;;;;;5095239;28;1501;-69
2023/04/07 00:47:08;;;;;;;;;;;7.50;99.90;;;;;;5131963;27;1917;-69
2023/04/07 00:49:35;;;;;;;;;;;7.50;99.90;;;;;;5134273;27;1103;-69
2023/04/07 00:52:01;;;;;;;;;;;7.50;99.90;;;;;;5134012;27;1122;-69
2023/04/07 00:54:28;;;;;;;;;;;7.50;99.90;;;;;;5119309;27;1131;-69
2023/04/07 00:56:54;;;;;;;;;;;7.50;99.90;;;;;;5113298;28;1100;-69
2023/04/07 00:59:20;;;;;;;;;;;7.50;99.90;;;;;;5113410;28;1175;-69
2023/04/07 01:01:52;;;;;;;;;;;7.50;99.90;;;;;;5112040;28;1061;-69
2023/04/07 01:04:25;;;;;;;;;;;7.50;99.90;;;;;;5089605;28;1149;-69
2023/04/07 01:06:54;;;;;;;;;;;7.50;99.90;;;;;;5091559;28;1156;-69
2023/04/07 01:09:31;;;;;;;;;;;7.50;99.90;;;;;;5090374;28;1985;-69
2023/04/07 01:12:02;;;;;;;;;;;7.50;99.90;;;;;;5091650;28;1501;-69
2023/04/07 01:14:30;;;;;;;;;;;7.50;99.90;;;;;;5112114;28;1127;-69
2023/04/07 01:17:02;;;;;;;;;;;7.40;99.90;;;;;;5093772;28;993;-69
2023/04/07 01:19:35;;;;;;;;;;;7.40;99.90;;;;;;5111233;28;953;-69
2023/04/07 01:22:05;;;;;;;;;;;7.50;99.90;;;;;;5125326;27;1163;-69
2023/04/07 01:24:57;;;;;;;;;;;7.40;99.90;;;;;;5074198;28;1101;-69
2023/04/07 01:27:37;;;;;;;;;;;7.50;99.90;;;;;;5090960;28;1910;-69
2023/04/07 01:30:03;;;;;;;;;;;7.40;99.90;;;;;;5089871;28;1129;-69
2023/04/07 01:32:30;;;;;;;;;;;7.40;99.90;;;;;;5090976;28;1018;-69
2023/04/07 01:34:57;;;;;;;;;;;7.40;99.90;;;;;;5092375;28;1084;-69
2023/04/07 01:37:24;;;;;;;;;;;7.40;99.90;;;;;;5089971;28;1215;-69
2023/04/07 01:39:51;;;;;;;;;;;7.40;99.90;;;;;;5124500;27;1111;-69
2023/04/07 01:42:18;;;;;;;;;;;7.40;99.90;;;;;;5092458;28;1111;-69
2023/04/07 01:44:44;;;;;;;;;;;7.40;99.90;;;;;;5091274;28;1318;-69
2023/04/07 01:47:10;;;;;;;;;;;7.40;99.90;;;;;;5081548;28;1914;-69
2023/04/07 01:49:36;;;;;;;;;;;7.40;99.90;;;;;;5088858;28;1100;-69
2023/04/07 01:52:03;;;;;;;;;;;7.40;99.90;;;;;;5091503;28;1152;-69
2023/04/07 01:54:29;;;;;;;;;;;7.40;99.90;;;;;;5091915;28;1084;-69
2023/04/07 01:56:55;;;;;;;;;;;7.40;99.90;;;;;;5089302;28;1201;-69
2023/04/07 01:59:21;;;;;;;;;;;7.40;99.90;;;;;;5090017;28;1240;-69
2023/04/07 02:01:47;;;;;;;;;;;7.50;99.90;;;;;;5072732;28;1290;-69
2023/04/07 02:04:17;;;;;;;;;;;7.50;99.90;;;;;;5089904;28;1219;-69
2023/04/07 02:06:48;;;;;;;;;;;7.50;99.90;;;;;;5087144;28;1061;-69
2023/04/07 02:09:17;;;;;;;;;;;7.50;99.90;;;;;;5122652;27;1914;-69
2023/04/07 02:11:44;;;;;;;;;;;7.50;99.90;;;;;;5089037;28;1303;-69
2023/04/07 02:14:10;;;;;;;;;;;7.50;99.90;;;;;;5090619;28;1109;-69
2023/04/07 02:16:51;;;;;;;;;;;7.60;99.90;;;;;;5123764;27;1194;-69
2023/04/07 02:19:17;;;;;;;;;;;7.60;99.90;;;;;;5090735;28;1350;-69
2023/04/07 02:21:44;;;;;;;;;;;7.60;99.90;;;;;;5089884;28;1152;-70
2023/04/07 02:24:10;;;;;;;;;;;7.60;99.90;;;;;;5090088;28;1092;-69
2023/04/07 02:26:36;;;;;;;;;;;7.60;99.90;;;;;;5072718;28;1180;-69
2023/04/07 02:29:02;;;;;;;;;;;7.60;99.90;;;;;;5090287;28;1910;-69
2023/04/07 02:31:28;;;;;;;;;;;7.60;99.90;;;;;;5090716;28;1202;-69
2023/04/07 02:33:54;;;;;;;;;;;7.60;99.90;;;;;;5090814;28;1108;-68
2023/04/07 02:36:20;;;;;;;;;;;7.60;99.90;;;;;;5090018;28;1200;-69
2023/04/07 02:38:46;;;;;;;;;;;7.60;99.90;;;;;;5091095;28;1136;-69
2023/04/07 02:41:11;;;;;;;;;;;7.60;99.90;;;;;;5089648;28;1102;-68
2023/04/07 02:43:37;;;;;;;;;;;7.60;99.90;;;;;;5091227;28;1311;-68
2023/04/07 02:46:03;;;;;;;;;;;7.60;99.90;;;;;;5089223;28;1171;-68
2023/04/07 02:48:29;;;;;;;;;;;7.60;99.90;;;;;;5088296;28;1910;-69
2023/04/07 02:50:54;;;;;;;;;;;7.60;99.90;;;;;;5090775;28;1119;-68
2023/04/07 02:53:20;;;;;;;;;;;7.60;99.90;;;;;;5089447;28;1148;-68
2023/04/07 02:55:46;;;;;;;;;;;7.60;99.90;;;;;;5088573;28;1235;-68
2023/04/07 02:58:12;;;;;;;;;;;7.60;99.90;;;;;;5089111;28;1138;-68
2023/04/07 03:00:41;;;;;;;;;;;7.60;99.90;;;;;;5071327;28;1101;-68
2023/04/07 03:03:12;;;;;;;;;;;7.60;99.90;;;;;;5098978;27;1068;-68
2023/04/07 03:05:41;;;;;;;;;;;7.60;99.90;;;;;;5146325;27;1217;-68
2023/04/07 03:08:08;;;;;;;;;;;7.60;99.90;;;;;;5091362;28;1902;-68
2023/04/07 03:10:35;;;;;;;;;;;7.60;99.90;;;;;;5091602;28;1370;-68
2023/04/07 03:13:00;;;;;;;;;;;7.60;99.90;;;;;;5119952;27;1154;-68
2023/04/07 03:15:27;;;;;;;;;;;7.60;99.90;;;;;;5109843;27;1111;-69
2023/04/07 03:17:54;;;;;;;;;;;7.60;99.90;;;;;;5113006;27;1203;-68
2023/04/07 03:20:20;;;;;;;;;;;7.60;99.90;;;;;;5112742;27;1146;-69
2023/04/07 03:22:46;;;;;;;;;;;7.60;99.90;;;;;;5128770;27;1047;-68
2023/04/07 03:25:19;;;;;;;;;;;7.50;99.90;;;;;;5078343;28;1112;-68
2023/04/07 03:27:45;;;;;;;;;;;7.50;99.90;;;;;;5092551;28;1989;-68
2023/04/07 03:30:13;;;;;;;;;;;7.60;99.90;;;;;;5091041;28;1291;-68
2023/04/07 03:32:39;;;;;;;;;;;7.50;99.90;;;;;;5091590;28;1105;-68
2023/04/07 03:35:05;;;;;;;;;;;7.60;99.90;;;;;;5110564;28;1129;-69
2023/04/07 03:37:30;;;;;;;;;;;7.50;99.90;;;;;;5109075;28;1104;-68
2023/04/07 03:39:58;;;;;;;;;;;7.50;99.90;;;;;;5092139;28;1069;-69
2023/04/07 03:42:26;;;;;;;;;;;7.50;99.90;;;;;;5090954;28;1333;-69
2023/04/07 03:44:58;;;;;;;;;;;7.50;99.90;;;;;;5091099;28;1632;-68
2023/04/07 03:47:24;;;;;;;;;;;7.50;99.90;;;;;;5110073;28;1906;-68
2023/04/07 03:49:55;;;;;;;;;;;7.50;99.90;;;;;;5090573;28;1132;-69
2023/04/07 03:52:22;;;;;;;;;;;7.50;99.90;;;;;;5125774;27;1190;-69
2023/04/07 03:54:51;;;;;;;;;;;7.50;99.90;;;;;;5091953;28;1132;-68
2023/04/07 03:57:20;;;;;;;;;;;7.50;99.90;;;;;;5073990;28;1090;-68
2023/04/07 03:59:50;;;;;;;;;;;7.50;99.90;;;;;;5090858;28;1232;-68
2023/04/07 04:02:17;;;;;;;;;;;7.50;99.90;;;;;;5092398;27;1179;-68
2023/04/07 04:04:44;;;;;;;;;;;7.50;99.90;;;;;;5145472;27;1202;-68
2023/04/07 04:07:11;;;;;;;;;;;7.50;99.90;;;;;;5103564;28;1498;-68
2023/04/07 04:09:42;;;;;;;;;;;7.40;99.90;;;;;;5100419;28;1154;-68
2023/04/07 04:12:09;;;;;;;;;;;7.50;99.90;;;;;;5092260;27;1592;-69
2023/04/07 04:14:42;;;;;;;;;;;7.40;99.90;;;;;;5145938;27;1143;-69
2023/04/07 04:17:09;;;;;;;;;;;7.50;99.90;;;;;;5144739;27;1286;-69
2023/04/07 04:19:40;;;;;;;;;;;7.40;99.90;;;;;;5145762;27;1145;-69
2023/04/07 04:22:14;;;;;;;;;;;7.40;99.90;;;;;;5145337;27;1305;-68
2023/04/07 04:24:48;;;;;;;;;;;7.40;99.90;;;;;;5111782;28;1132;-69
2023/04/07 04:27:14;;;;;;;;;;;7.40;99.90;;;;;;5120743;27;1086;-69
2023/04/07 04:29:42;;;;;;;;;;;7.40;99.90;;;;;;5090996;28;1442;-69
2023/04/07 04:32:11;;;;;;;;;;;7.40;99.90;;;;;;5073642;28;1211;-69
2023/04/07 04:34:38;;;;;;;;;;;7.40;99.90;;;;;;5091373;28;1089;-68
2023/04/07 04:37:04;;;;;;;;;;;7.40;99.90;;;;;;5119328;28;1119;-68
2023/04/07 04:39:30;;;;;;;;;;;7.40;99.90;;;;;;5129292;28;1158;-68
2023/04/07 04:41:56;;;;;;;;;;;7.40;99.90;;;;;;5111513;28;1103;-68
2023/04/07 04:44:29;;;;;;;;;;;7.30;99.90;;;;;;5118509;27;1575;-68
2023/04/07 04:46:56;;;;;;;;;;;7.30;99.90;;;;;;5108753;28;1108;-68
2023/04/07 04:49:23;;;;;;;;;;;7.30;99.90;;;;;;5091169;28;1946;-68
2023/04/07 04:51:50;;;;;;;;;;;7.30;99.90;;;;;;5090520;28;1176;-68
2023/04/07 04:54:19;;;;;;;;;;;7.30;99.90;;;;;;5090475;28;1163;-69
2023/04/07 04:56:45;;;;;;;;;;;7.40;99.90;;;;;;5109536;28;1088;-68
2023/04/07 04:59:10;;;;;;;;;;;7.30;99.90;;;;;;5090813;28;1171;-68
2023/04/07 05:01:42;;;;;;;;;;;7.30;99.90;;;;;;5075320;28;1359;-68
2023/04/07 05:04:12;;;;;;;;;;;7.30;99.90;;;;;;5098480;28;1298;-68
2023/04/07 05:06:45;;;;;;;;;;;7.30;99.90;;;;;;5090516;28;1240;-68
2023/04/07 05:09:12;;;;;;;;;;;7.30;99.90;;;;;;5090047;28;1950;-68
2023/04/07 05:11:42;;;;;;;;;;;7.30;99.90;;;;;;5095937;28;1318;-69
2023/04/07 05:14:08;;;;;;;;;;;7.30;99.90;;;;;;5128394;28;1087;-68
2023/04/07 05:16:36;;;;;;;;;;;7.30;99.90;;;;;;5128008;28;1108;-68
2023/04/07 05:19:03;;;;;;;;;;;7.40;99.90;;;;;;5099043;28;1088;-68
2023/04/07 05:21:30;;;;;;;;;;;7.30;99.90;;;;;;5082523;28;1004;-68
2023/04/07 05:24:00;;;;;;;;;;;7.30;99.90;;;;;;5090932;28;1089;-68
2023/04/07 05:26:27;;;;;;;;;;;7.30;99.90;;;;;;5109294;28;1024;-68
2023/04/07 05:28:52;;;;;;;;;;;7.30;99.90;;;;;;5107411;28;1949;-68
2023/04/07 05:31:22;;;;;;;;;;;7.30;99.90;;;;;;5090886;28;1104;-68
2023/04/07 05:33:51;;;;;;;;;;;7.40;99.90;;;;;;5092971;28;1029;-68
2023/04/07 05:36:20;;;;;;;;;;;7.40;99.90;;;;;;5093092;28;1164;-68
2023/04/07 05:38:46;;;;;;;;;;;7.50;99.90;;;;;;5112660;28;1141;-68
2023/04/07 05:41:16;;;;;;;;;;;7.50;99.90;;;;;;5094413;28;1183;-68
2023/04/07 05:43:42;;;;;;;;;;;7.50;99.90;;;;;;5110133;28;1239;-69
2023/04/07 05:46:08;;;;;;;;;;;7.50;99.90;;;;;;5085273;28;960;-68
2023/04/07 05:48:40;;;;;;;;;;;7.60;99.90;;;;;;5076932;28;1981;-68
2023/04/07 05:51:06;;;;;;;;;;;7.60;99.90;;;;;;5093450;28;1073;-68
2023/04/07 05:53:32;;;;;;;;;;;7.60;99.90;;;;;;5112569;28;1100;-68
2023/04/07 05:55:58;;;;;;;;;;;7.70;99.90;;;;;;5078776;28;1123;-68
2023/04/07 05:58:38;;;;;;;;;;;7.70;99.90;;;;;;5093349;28;1077;-69
2023/04/07 06:01:04;;;;;;;;;;;7.80;99.90;;;;;;5093645;28;1061;-68
2023/04/07 06:03:30;;;;;;;;;;;7.80;99.90;;;;;;5119115;27;1191;-68
2023/04/07 06:06:04;;;;;;;;;;;7.80;99.90;;;;;;5126634;27;1136;-69
2023/04/07 06:08:30;;;;;;;;;;;7.90;99.90;;;;;;5093519;28;1972;-69
2023/04/07 06:10:56;;;;;;;;;;;7.90;99.90;;;;;;5111245;28;1366;-68
2023/04/07 06:13:21;;;;;;;;;;;8.00;99.90;;;;;;5111143;28;1114;-68
2023/04/07 06:15:47;;;;;;;;;;;8.00;99.90;;;;;;5112215;28;1084;-68
2023/04/07 06:18:13;;;;;;;;;;;8.00;99.90;;;;;;5076312;28;1109;-69
2023/04/07 06:20:38;;;;;;;;;;;8.00;99.90;;;;;;5111019;28;1084;-69
2023/04/07 06:23:05;;;;;;;;;;;8.10;99.90;;;;;;5112017;28;1183;-68
2023/04/07 06:25:31;;;;;;;;;;;8.20;99.90;;;;;;5076123;28;1166;-69
2023/04/07 06:28:00;;;;;;;;;;;8.20;99.90;;;;;;5093006;28;1977;-69
2023/04/07 06:30:26;;;;;;;;;;;8.30;99.90;;;;;;5092674;28;1152;-69
2023/04/07 06:32:52;;;;;;;;;;;8.30;99.90;;;;;;5092550;28;1135;-69
2023/04/07 06:35:18;;;;;;;;;;;8.30;99.90;;;;;;5093119;28;1124;-69
2023/04/07 06:37:43;;;;;;;;;;;8.40;99.90;;;;;;5111579;28;1108;-69
2023/04/07 06:40:09;;;;;;;;;;;8.40;99.90;;;;;;5110177;28;1143;-69
2023/04/07 06:42:35;;;;;;;;;;;8.50;99.90;;;;;;5110997;28;1116;-69
2023/04/07 06:45:15;;;;;;;;;;;8.50;99.90;;;;;;5092891;28;1161;-69
2023/04/07 06:47:41;;;;;;;;;;;8.50;99.90;;;;;;5110065;28;1905;-69
2023/04/07 06:50:07;;;;;;;;;;;8.50;99.90;;;;;;5111038;28;1163;-69
2023/04/07 06:52:32;;;;;;;;;;;8.60;99.90;;;;;;5111349;28;1164;-69
2023/04/07 06:54:58;;;;;;;;;;;8.60;99.90;;;;;;5110401;28;1199;-69
2023/04/07 06:57:24;;;;;;;;;;;8.60;99.90;;;;;;5110180;28;1118;-69
2023/04/07 06:59:50;;;;;;;;;;;8.70;99.90;;;;;;5110494;28;1171;-69
2023/04/07 07:02:15;;;;;;;;;;;8.70;99.90;;;;;;5111752;27;1097;-69
2023/04/07 07:04:41;;;;;;;;;;;8.80;99.90;;;;;;5128796;27;1310;-69
2023/04/07 07:07:07;;;;;;;;;;;8.80;99.90;;;;;;5109078;28;1044;-69
2023/04/07 07:09:32;;;;;;;;;;;8.80;99.90;;;;;;5111079;28;1906;-69
2023/04/07 07:12:00;;;;;;;;;;;8.80;99.90;;;;;;5110565;27;1595;-69
2023/04/07 07:14:26;;;;;;;;;;;8.90;99.90;;;;;;5119287;27;1121;-69
2023/04/07 07:16:52;;;;;;;;;;;8.90;99.90;;;;;;5092701;28;1364;-69
2023/04/07 07:19:17;;;;;;;;;;;9.00;99.90;;;;;;5110481;28;1204;-69
2023/04/07 07:21:43;;;;;;;;;;;9.00;99.90;;;;;;5110115;28;1128;-69
2023/04/07 07:24:09;;;;;;;;;;;9.00;99.90;;;;;;5082936;28;1146;-69
2023/04/07 07:26:35;;;;;;;;;;;9.00;99.90;;;;;;5110598;28;1116;-69
2023/04/07 07:29:00;;;;;;;;;;;9.00;99.90;;;;;;5109639;28;1910;-69
2023/04/07 07:31:26;;;;;;;;;;;9.10;99.90;;;;;;5109828;28;1159;-69
2023/04/07 07:33:52;;;;;;;;;;;9.20;99.90;;;;;;5110377;28;1041;-69
2023/04/07 07:36:17;;;;;;;;;;;9.30;99.90;;;;;;5109819;28;1112;-69
2023/04/07 07:38:43;;;;;;;;;;;9.40;99.90;;;;;;5110214;28;1108;-69
2023/04/07 07:41:09;;;;;;;;;;;9.50;99.90;;;;;;5109132;28;1135;-69
2023/04/07 07:43:36;;;;;;;;;;;9.60;99.90;;;;;;5109703;28;1116;-69
2023/04/07 07:46:01;;;;;;;;;;;9.70;99.90;;;;;;5110093;28;1053;-69
2023/04/07 07:48:27;;;;;;;;;;;9.90;99.90;;;;;;5109925;28;1914;-69
2023/04/07 07:50:55;;;;;;;;;;;10.10;99.90;;;;;;5108630;28;1125;-69
2023/04/07 07:53:21;;;;;;;;;;;10.30;99.90;;;;;;5092161;28;1073;-69
2023/04/07 07:55:47;;;;;;;;;;;10.40;99.90;;;;;;5109102;28;1159;-69
2023/04/07 07:58:13;;;;;;;;;;;10.60;99.90;;;;;;5108754;28;1124;-69
2023/04/07 08:00:38;;;;;;;;;;;10.70;99.90;;;;;;5110016;28;1081;-69
2023/04/07 08:03:04;;;;;;;;;;;10.70;99.90;;;;;;5116551;27;952;-69
2023/04/07 08:05:30;;;;;;;;;;;10.90;99.90;;;;;;5111725;28;1261;-69
2023/04/07 08:07:56;;;;;;;;;;;11.00;99.90;;;;;;5110785;27;1905;-69
2023/04/07 08:10:23;;;;;;;;;;;11.10;99.90;;;;;;5090421;28;1932;-69
2023/04/07 08:12:49;;;;;;;;;;;11.10;99.90;;;;;;5117674;27;1200;-69
2023/04/07 08:15:15;;;;;;;;;;;11.30;99.90;;;;;;5130437;27;1302;-70
2023/04/07 08:17:41;;;;;;;;;;;11.40;99.90;;;;;;5097143;28;1181;-69
2023/04/07 08:20:07;;;;;;;;;;;11.70;99.90;;;;;;5109740;28;1123;-70
2023/04/07 08:22:33;;;;;;;;;;;11.90;99.90;;;;;;5110007;28;1131;-70
2023/04/07 08:24:58;;;;;;;;;;;12.10;99.90;;;;;;5107839;28;1193;-70
2023/04/07 08:27:24;;;;;;;;;;;12.30;99.90;;;;;;5109667;28;1987;-70
2023/04/07 08:29:58;;;;;;;;;;;12.60;99.90;;;;;;5109542;28;1120;-70
2023/04/07 08:32:23;;;;;;;;;;;12.90;99.90;;;;;;5108486;28;1143;-70
2023/04/07 08:34:49;;;;;;;;;;;13.20;99.90;;;;;;5104131;28;1127;-70
2023/04/07 08:37:15;;;;;;;;;;;13.40;99.90;;;;;;5117373;28;1273;-70
2023/04/07 08:39:41;;;;;;;;;;;13.70;99.90;;;;;;5114466;28;1017;-70
2023/04/07 08:42:07;;;;;;;;;;;13.90;99.90;;;;;;5110014;28;1270;-70
2023/04/07 08:44:35;;;;;;;;;;;13.90;99.90;;;;;;5109375;28;1243;-70
2023/04/07 08:47:02;;;;;;;;;;;13.90;99.90;;;;;;5108865;28;1100;-70
2023/04/07 08:49:30;;;;;;;;;;;13.90;99.90;;;;;;5109284;28;1942;-70
2023/04/07 08:51:57;;;;;;;;;;;13.80;99.90;;;;;;5109036;28;1146;-70
2023/04/07 08:54:23;;;;;;;;;;;13.90;99.90;;;;;;5108781;28;1120;-70
2023/04/07 08:56:49;;;;;;;;;;;13.90;99.90;;;;;;5109169;28;1085;-70
2023/04/07 08:59:17;;;;;;;;;;;14.00;99.90;;;;;;5109085;28;1105;-70
2023/04/07 09:01:43;;;;;;;;;;;14.20;99.90;;;;;;5108846;28;1121;-70
2023/04/07 09:04:09;;;;;;;;;;;14.30;99.90;;;;;;5125435;28;1134;-70
2023/04/07 09:06:35;;;;;;;;;;;14.40;99.90;;;;;;5108137;28;1254;-70
2023/04/07 09:09:01;;;;;;;;;;;14.50;99.90;;;;;;5102085;27;1976;-70
2023/04/07 09:11:27;;;;;;;;;;;14.50;99.90;;;;;;5112596;28;1330;-70
2023/04/07 09:13:55;;;;;;;;;;;14.40;99.90;;;;;;5112600;28;1112;-71
2023/04/07 09:16:21;;;;;;;;;;;14.30;99.90;;;;;;5113193;28;1163;-70
2023/04/07 09:18:46;;;;;;;;;;;14.30;99.90;;;;;;5112571;28;1202;-70
2023/04/07 09:21:12;;;;;;;;;;;14.20;99.90;;;;;;5112102;28;1087;-70
2023/04/07 09:23:38;;;;;;;;;;;14.20;99.90;;;;;;5112997;28;1100;-71
2023/04/07 09:26:16;;;;;;;;;;;14.20;99.90;;;;;;5112696;28;1155;-71
2023/04/07 09:28:43;;;;;;;;;;;14.30;99.90;;;;;;5110466;28;1930;-71
2023/04/07 09:31:09;;;;;;;;;;;14.30;99.90;;;;;;5112821;28;1021;-71
2023/04/07 09:33:35;;;;;;;;;;;14.40;99.90;;;;;;5112174;28;1212;-71
2023/04/07 09:36:04;;;;;;;;;;;14.50;99.90;;;;;;5111588;28;1154;-71
2023/04/07 09:38:33;;;;;;;;;;;14.50;99.90;;;;;;5112738;28;1132;-70
2023/04/07 09:41:07;;;;;;;;;;;14.50;99.90;;;;;;5112468;28;1101;-71
2023/04/07 09:43:34;;;;;;;;;;;14.50;99.90;;;;;;5093878;28;1436;-71
2023/04/07 09:46:07;;;;;;;;;;;14.70;99.90;;;;;;5111469;28;1130;-71
2023/04/07 09:48:33;;;;;;;;;;;14.80;99.90;;;;;;5113975;27;1913;-71
2023/04/07 09:51:07;;;;;;;;;;;15.00;99.90;;;;;;5105884;27;1390;-71
2023/04/07 09:53:42;;;;;;;;;;;15.20;99.90;;;;;;5109802;28;1848;-71
2023/04/07 09:56:09;;;;;;;;;;;15.30;99.90;;;;;;5111669;27;1225;-71
2023/04/07 09:58:36;;;;;;;;;;;15.40;99.90;;;;;;5112145;28;1187;-71
2023/04/07 10:01:03;;;;;;;;;;;15.60;99.90;;;;;;5111420;28;1267;-71
2023/04/07 10:03:29;;;;;;;;;;;16.10;99.90;;;;;;5106010;28;1277;-71
2023/04/07 10:05:55;;;;;;;;;;;16.20;99.90;;;;;;5112344;28;1151;-71
2023/04/07 10:08:21;;;;;;;;;;;;;;;;;;5111805;28;1914;-71
2023/04/07 10:10:48;;;;;;;;;;;16.60;99.90;;;;;;5110790;28;1398;-71
2023/04/07 10:13:14;;;;;;;;;;;16.80;99.80;;;;;;5123381;27;1122;-71
2023/04/07 10:15:40;;;;;;;;;;;16.90;99.50;;;;;;5148489;27;1123;-71
2023/04/07 10:18:07;;;;;;;;;;;17.30;99.90;;;;;;5131630;27;1103;-71
2023/04/07 10:20:33;;;;;;;;;;;;;;;;;;5119998;27;1199;-71
2023/04/07 10:23:07;;;;;;;;;;;18.30;99.90;;;;;;5113378;27;1259;-71
2023/04/07 10:25:35;;;;;;;;;;;18.40;97.10;;;;;;5110751;27;1160;-71
2023/04/07 10:28:05;;;;;;;;;;;18.90;94.20;;;;;;5113693;27;1914;-71
2023/04/07 10:30:31;;;;;;;;;;;;;;;;;;5119318;27;1243;-71
2023/04/07 10:32:57;;;;;;;;;;;20.00;94.20;;;;;;5131448;27;1151;-71
2023/04/07 10:35:23;;;;;;;;;;;20.50;88.80;;;;;;5132117;27;1249;-71
2023/04/07 10:38:05;;;;;;;;;;;21.00;85.50;;;;;;5114067;27;1015;-71
2023/04/07 10:40:31;;;;;;;;;;;21.40;78.60;;;;;;5111466;28;1108;-71
2023/04/07 10:42:57;;;;;;;;;;;21.80;76.70;;;;;;5111280;28;1073;-71
2023/04/07 10:45:41;;;;;;;;;;;22.20;74.50;;;;;;5110763;28;1151;-71
2023/04/07 10:48:09;;;;;;;;;;;22.40;72.40;;;;;;5101756;28;1937;-71
2023/04/07 10:50:35;;;;;;;;;;;22.70;69.80;;;;;;5111530;28;1124;-71
2023/04/07 10:53:01;;;;;;;;;;;;;;;;;;5110158;28;1108;-72
2023/04/07 10:55:27;;;;;;;;;;;23.30;66.10;;;;;;5110729;28;1163;-71
2023/04/07 10:58:11;;;;;;;;;;;23.50;64.60;;;;;;5110671;28;1163;-71
2023/04/07 11:00:37;;;;;;;;;;;23.70;62.70;;;;;;5095170;28;2046;-71
2023/04/07 11:03:12;;;;;;;;;;;23.80;61.30;;;;;;5092929;28;1199;-69
2023/04/07 11:05:38;;;;;;;;;;;23.80;61.60;;;;;;5094443;28;1177;-69
2023/04/07 11:08:05;;;;;;;;;;;23.90;60.10;;;;;;5109960;28;1914;-69
2023/04/07 11:10:31;;;;;;;;;;;24.00;58.60;;;;;;5111184;28;1176;-69
2023/04/07 11:12:58;;;;;;;;;;;23.90;57.50;;;;;;5113105;27;1192;-69
2023/04/07 11:15:24;;;;;;;;;;;24.00;57.90;;;;;;5111046;28;1093;-69
2023/04/07 11:18:14;;;;;;;;;;;24.30;55.70;;;;;;5110966;28;1120;-69
2023/04/07 11:20:41;;;;;;;;;;;24.50;56.60;;;;;;5109593;28;1789;-69
2023/04/07 11:23:06;;;;;;;;;;;24.70;55.70;;;;;;5109707;28;1125;-69
2023/04/07 11:25:34;;;;;;;;;;;25.00;55.20;;;;;;5110184;28;1101;-69
2023/04/07 11:28:00;;;;;;;;;;;25.20;53.80;;;;;;5107153;27;1993;-69
2023/04/07 11:30:26;;;;;;;;;;;25.30;53.70;;;;;;5110377;28;1109;-69
2023/04/07 11:32:52;;;;;;;;;;;25.30;52.60;;;;;;5110292;28;1222;-69
2023/04/07 11:35:18;;;;;;;;;;;25.10;52.30;;;;;;5109961;28;1101;-69
2023/04/07 11:37:44;;;;;;;;;;;25.30;52.00;;;;;;5110007;28;1156;-69
2023/04/07 11:40:10;;;;;;;;;;;25.60;52.10;;;;;;5086058;28;1160;-69
2023/04/07 11:42:37;;;;;;;;;;;25.40;51.70;;;;;;5109658;28;1131;-69
2023/04/07 11:45:03;;;;;;;;;;;24.80;51.80;;;;;;5091551;28;1117;-69
2023/04/07 11:47:33;;;;;;;;;;;24.10;52.50;;;;;;5110463;28;1144;-69
2023/04/07 11:49:58;;;;;;;;;;;23.30;52.40;;;;;;5108745;28;1116;-69
2023/04/07 11:52:25;;;;;;;;;;;22.50;55.30;;;;;;5112007;27;1274;-69
2023/04/07 11:54:51;;;;;;;;;;;21.90;55.40;;;;;;5109896;28;1171;-68
2023/04/07 11:57:24;;;;;;;;;;;21.30;58.30;;;;;;5092501;28;1215;-69
2023/04/07 11:59:50;;;;;;;;;;;20.80;58.40;;;;;;5096578;28;1045;-69
2023/04/07 12:02:30;;;;;;;;;;;20.60;59.20;;;;;;5109724;28;1104;-69
2023/04/07 12:04:56;;;;;;;;;;;20.20;59.90;;;;;;5127180;27;1203;-69
2023/04/07 12:07:22;;;;;;;;;;;19.80;60.90;;;;;;5112463;27;1258;-69
2023/04/07 12:09:48;;;;;;;;;;;19.40;60.00;;;;;;5108940;28;1915;-69
2023/04/07 12:12:23;;;;;;;;;;;19.10;61.70;;;;;;5111700;27;1089;-69
2023/04/07 12:14:50;;;;;;;;;;;19.00;64.00;;;;;;5124160;27;1091;-69
2023/04/07 12:17:20;;;;;;;;;;;18.80;63.40;;;;;;5108976;28;1226;-68
2023/04/07 12:19:45;;;;;;;;;;;18.70;62.70;;;;;;5109516;28;1105;-68
2023/04/07 12:22:11;;;;;;;;;;;18.70;62.80;;;;;;5109328;28;1191;-69
2023/04/07 12:24:36;;;;;;;;;;;18.60;63.10;;;;;;5106959;28;1193;-69
2023/04/07 12:27:03;;;;;;;;;;;18.40;64.10;;;;;;5091240;28;1359;-68
2023/04/07 12:29:28;;;;;;;;;;;18.30;65.00;;;;;;5109504;28;1983;-69
2023/04/07 12:31:55;;;;;;;;;;;18.20;64.10;;;;;;5108987;28;1104;-69
2023/04/07 12:34:21;;;;;;;;;;;18.20;63.50;;;;;;5109199;28;1324;-68
2023/04/07 12:36:47;;;;;;;;;;;18.10;63.70;;;;;;5090766;28;1089;-68
2023/04/07 12:39:12;;;;;;;;;;;17.90;64.70;;;;;;5090330;28;1053;-68
2023/04/07 12:41:38;;;;;;;;;;;17.90;67.20;;;;;;5107986;28;1093;-68
2023/04/07 12:44:04;;;;;;;;;;;17.80;65.10;;;;;;5113304;28;1290;-69
2023/04/07 12:46:30;;;;;;;;;;;17.70;65.20;;;;;;5113082;28;1163;-69
2023/04/07 12:48:56;;;;;;;;;;;17.60;65.50;;;;;;5113527;28;1985;-68
2023/04/07 12:51:21;;;;;;;;;;;17.40;65.90;;;;;;5112571;28;1139;-68
2023/04/07 12:53:47;;;;;;;;;;;17.30;65.80;;;;;;5113286;28;1136;-69
2023/04/07 12:56:13;;;;;;;;;;;17.30;66.60;;;;;;5113506;28;1215;-68
2023/04/07 12:58:39;;;;;;;;;;;17.20;66.90;;;;;;5110999;28;1100;-69
2023/04/07 13:01:05;;;;;;;;;;;17.10;66.90;;;;;;5111465;28;1104;-68
2023/04/07 13:03:31;;;;;;;;;;;17.00;67.70;;;;;;5124782;27;1173;-68
2023/04/07 13:06:00;;;;;;;;;;;17.00;66.30;;;;;;5122473;27;1105;-68
2023/04/07 13:08:27;;;;;;;;;;;17.00;66.50;;;;;;5111842;28;1981;-68
2023/04/07 13:10:52;;;;;;;;;;;17.60;67.10;;;;;;5113428;27;1123;-68
2023/04/07 13:13:18;;;;;;;;;;;17.00;65.80;;;;;;5109562;28;1197;-69
2023/04/07 13:15:43;;;;;;;;;;;17.10;66.90;;;;;;5114910;27;1254;-68
2023/04/07 13:18:09;;;;;;;;;;;17.20;66.40;;;;;;5112424;28;1235;-69
2023/04/07 13:20:35;;;;;;;;;;;17.20;66.10;;;;;;5093901;28;1093;-69
2023/04/07 13:23:01;;;;;;;;;;;17.20;65.90;;;;;;5112437;28;1112;-68
2023/04/07 13:25:26;;;;;;;;;;;17.30;66.20;;;;;;5112577;28;1116;-68
2023/04/07 13:27:52;;;;;;;;;;;17.50;65.60;;;;;;5112333;28;1961;-68
2023/04/07 13:30:18;;;;;;;;;;;17.60;63.80;;;;;;5113817;27;1280;-68
2023/04/07 13:32:43;;;;;;;;;;;18.10;63.90;;;;;;5112098;27;3629;-68
2023/04/07 13:35:09;;;;;;;;;;;19.00;59.60;;;;;;5111127;28;1210;-68
2023/04/07 13:37:35;;;;;;;;;;;19.40;58.50;;;;;;5111529;27;3589;-68
2023/04/07 13:40:01;;;;;;;;;;;19.30;58.50;;;;;;5130480;27;1095;-68
2023/04/07 13:42:26;;;;;;;;;;;19.40;59.30;;;;;;5132621;27;1099;-69
2023/04/07 13:44:53;;;;;;;;;;;20.50;59.00;;;;;;5113803;27;1123;-69
2023/04/07 13:47:19;;;;;;;;;;;21.90;55.90;;;;;;5136513;27;1274;-69
2023/04/07 13:49:45;;;;;;;;;;;23.20;53.60;;;;;;5111169;28;3526;-69
2023/04/07 13:52:12;;;;;;;;;;;24.30;51.90;;;;;;5117409;27;1179;-69
2023/04/07 13:54:38;;;;;;;;;;;25.20;50.10;;;;;;5106918;28;1087;-69
2023/04/07 13:57:04;;;;;;;;;;;25.80;47.30;;;;;;5111761;28;1100;-69
2023/04/07 13:59:30;;;;;;;;;;;26.40;46.70;;;;;;5112131;28;1077;-69
2023/04/07 14:01:56;;;;;;;;;;;27.00;46.00;;;;;;5111066;28;1140;-69
2023/04/07 14:04:21;;;;;;;;;;;27.30;44.80;;;;;;5112378;27;1299;-69
2023/04/07 14:06:47;;;;;;;;;;;27.00;44.20;;;;;;5093503;28;1315;-69
2023/04/07 14:09:13;;;;;;;;;;;25.90;45.20;;;;;;5111021;28;1901;-69
2023/04/07 14:11:39;;;;;;;;;;;24.70;46.30;;;;;;5097453;28;1170;-69
2023/04/07 14:14:05;;;;;;;;;;;23.80;46.90;;;;;;5130270;27;1099;-69
2023/04/07 14:16:31;;;;;;;;;;;23.80;47.60;;;;;;5131718;27;1143;-69
2023/04/07 14:18:57;;;;;;;;;;;24.50;45.90;;;;;;5113882;27;1076;-69
2023/04/07 14:21:23;;;;;;;;;;;25.40;46.70;;;;;;5111123;28;1096;-69
2023/04/07 14:23:48;;;;;;;;;;;25.70;44.70;;;;;;5111388;28;1135;-69
2023/04/07 14:26:14;;;;;;;;;;;25.50;45.30;;;;;;5112068;28;1147;-69
2023/04/07 14:28:40;;;;;;;;;;;25.60;44.80;;;;;;5110729;28;1909;-72
2023/04/07 14:31:10;;;;;;;;;;;26.00;44.30;;;;;;5092643;28;1147;-71
2023/04/07 14:33:36;;;;;;;;;;;26.60;43.50;;;;;;5111998;28;1179;-69
2023/04/07 14:36:02;;;;;;;;;;;27.00;42.90;;;;;;5095572;28;3655;-68
2023/04/07 14:38:27;;;;;;;;;;;26.90;42.90;;;;;;5110666;28;3773;-68